createdAt,value
2023-05-31T00:04:21.265Z,2.28
2023-05-31T00:06:47.828Z,2.25
2023-05-31T00:09:14.356Z,2.17
2023-05-31T00:11:40.993Z,1.95
2023-05-31T00:14:07.694Z,1.67
2023-05-31T00:19:07.754Z,2.10
2023-05-31T00:21:34.405Z,2.35
2023-05-31T00:24:00.953Z,2.25
2023-05-31T00:26:27.788Z,2.10
2023-05-31T00:28:54.622Z,2.25
2023-05-31T00:31:21.310Z,1.75
2023-05-31T00:33:49.865Z,1.75
2023-05-31T00:36:16.454Z,2.20
2023-05-31T00:38:42.969Z,1.90
2023-05-31T00:41:12.971Z,1.88
2023-05-31T00:43:39.564Z,1.67
2023-05-31T00:46:07.238Z,1.85
2023-05-31T00:48:40.751Z,1.73
2023-05-31T00:51:07.367Z,1.40
2023-05-31T00:53:34.386Z,1.60
2023-05-31T00:56:01.870Z,1.70
2023-05-31T00:58:29.055Z,1.90
2023-05-31T01:01:00.098Z,1.67
2023-05-31T01:03:27.093Z,1.40
2023-05-31T01:05:53.791Z,1.20
2023-05-31T01:08:21.806Z,1.63
2023-05-31T01:10:55.229Z,1.92
2023-05-31T01:13:28.924Z,1.95
2023-05-31T01:16:04.282Z,1.80
2023-05-31T01:18:42.736Z,1.77
2023-05-31T01:21:14.352Z,1.95
2023-05-31T01:24:11.801Z,1.80
2023-05-31T01:26:51.463Z,1.90
2023-05-31T01:29:25.968Z,1.77
2023-05-31T01:31:55.617Z,1.60
2023-05-31T01:34:22.664Z,1.67
2023-05-31T01:36:49.187Z,1.75
2023-05-31T01:39:18.556Z,1.70
2023-05-31T01:41:47.628Z,2.00
2023-05-31T01:44:16.887Z,1.85
2023-05-31T01:46:44.094Z,1.63
2023-05-31T01:49:11.751Z,1.60
2023-05-31T01:51:40.775Z,1.70
2023-05-31T01:54:09.187Z,1.70
2023-05-31T01:56:40.685Z,1.63
2023-05-31T01:59:08.791Z,1.90
2023-05-31T02:01:37.612Z,1.70
2023-05-31T02:04:04.623Z,1.90
2023-05-31T02:06:32.901Z,1.83
2023-05-31T02:09:01.687Z,1.95
2023-05-31T02:11:28.373Z,2.25
2023-05-31T02:13:54.921Z,2.10
2023-05-31T02:16:23.379Z,2.20
2023-05-31T02:18:52.416Z,2.00
2023-05-31T02:21:19.115Z,1.98
2023-05-31T02:23:46.237Z,2.67
2023-05-31T02:26:12.772Z,2.30
2023-05-31T02:28:41.389Z,1.85
2023-05-31T02:31:09.784Z,1.88
2023-05-31T02:33:36.419Z,2.05
2023-05-31T02:36:03.090Z,1.80
2023-05-31T02:38:33.320Z,2.10
2023-05-31T02:41:00.057Z,2.28
2023-05-31T02:43:26.894Z,1.80
2023-05-31T02:45:53.753Z,1.98
2023-05-31T02:48:20.414Z,1.95
2023-05-31T02:50:47.341Z,2.17
2023-05-31T02:53:18.129Z,2.40
2023-05-31T02:55:44.855Z,2.28
2023-05-31T02:58:11.882Z,2.20
2023-05-31T03:00:38.657Z,2.00
2023-05-31T03:03:08.824Z,2.58
2023-05-31T03:05:35.486Z,2.08
2023-05-31T03:08:03.826Z,2.28
2023-05-31T03:10:30.401Z,2.05
2023-05-31T03:12:56.995Z,2.10
2023-05-31T03:15:27.475Z,2.13
2023-05-31T03:17:54.114Z,2.30
2023-05-31T03:20:20.846Z,2.50
2023-05-31T03:22:47.600Z,2.60
2023-05-31T03:25:14.200Z,2.15
2023-05-31T03:27:40.840Z,2.50
2023-05-31T03:30:08.224Z,2.13
2023-05-31T03:32:36.251Z,2.13
2023-05-31T03:35:04.452Z,2.40
2023-05-31T03:37:32.890Z,1.95
2023-05-31T03:39:59.701Z,1.85
2023-05-31T03:42:26.433Z,2.03
2023-05-31T03:44:57.458Z,2.15
2023-05-31T03:47:24.184Z,1.65
2023-05-31T03:49:50.850Z,2.03
2023-05-31T03:52:23.464Z,1.95
2023-05-31T03:54:50.604Z,1.95
2023-05-31T03:57:17.366Z,2.20
2023-05-31T03:59:44.146Z,1.90
2023-05-31T04:02:10.974Z,1.67
2023-05-31T04:04:37.637Z,2.00
2023-05-31T04:07:04.723Z,1.83
2023-05-31T04:09:31.375Z,1.90
2023-05-31T04:11:58.041Z,1.88
2023-05-31T04:14:24.662Z,1.85
2023-05-31T04:16:51.251Z,1.80
2023-05-31T04:19:18.060Z,1.95
2023-05-31T04:21:44.783Z,1.77
2023-05-31T04:24:11.988Z,1.73
2023-05-31T04:26:38.811Z,1.88
2023-05-31T04:29:05.459Z,2.00
2023-05-31T04:31:50.007Z,1.80
2023-05-31T04:34:24.343Z,1.98
2023-05-31T04:36:51.447Z,2.05
2023-05-31T04:39:21.022Z,1.95
2023-05-31T04:41:47.982Z,1.70
2023-05-31T04:44:14.925Z,2.03
2023-05-31T04:46:44.158Z,2.13
2023-05-31T04:49:15.310Z,1.75
2023-05-31T04:51:42.240Z,1.92
2023-05-31T04:54:09.272Z,2.05
2023-05-31T04:56:40.366Z,2.30
2023-05-31T04:59:08.807Z,1.85
2023-05-31T05:01:36.994Z,1.90
2023-05-31T05:04:05.752Z,1.63
2023-05-31T05:06:32.517Z,1.77
2023-05-31T05:08:59.593Z,1.88
2023-05-31T05:11:28.584Z,1.92
2023-05-31T05:13:55.089Z,2.13
2023-05-31T05:16:23.974Z,2.03
2023-05-31T05:18:50.683Z,1.83
2023-05-31T05:21:17.218Z,1.77
2023-05-31T05:23:43.816Z,1.90
2023-05-31T05:26:12.531Z,1.70
2023-05-31T05:28:39.571Z,1.65
2023-05-31T05:31:06.157Z,1.80
2023-05-31T05:33:32.836Z,1.80
2023-05-31T05:35:59.524Z,1.63
2023-05-31T05:38:26.007Z,1.92
2023-05-31T05:40:59.321Z,1.80
2023-05-31T05:43:26.167Z,1.80
2023-05-31T05:45:52.745Z,1.90
2023-05-31T05:48:21.532Z,1.40
2023-05-31T05:50:48.558Z,1.77
2023-05-31T05:53:18.620Z,1.70
2023-05-31T05:55:57.413Z,1.35
2023-05-31T05:58:23.950Z,1.67
2023-05-31T06:00:50.488Z,2.00
2023-05-31T06:03:17.486Z,2.08
2023-05-31T06:05:44.601Z,1.90
2023-05-31T06:08:12.122Z,1.90
2023-05-31T06:10:39.096Z,1.90
2023-05-31T06:13:05.884Z,1.60
2023-05-31T06:18:24.883Z,1.55
2023-05-31T06:20:51.585Z,1.80
2023-05-31T06:23:18.192Z,1.50
2023-05-31T06:25:46.520Z,1.98
2023-05-31T06:28:13.585Z,1.67
2023-05-31T06:30:46.864Z,1.63
2023-05-31T06:33:19.814Z,1.75
2023-05-31T06:35:46.436Z,1.45
2023-05-31T06:38:17.768Z,1.35
2023-05-31T06:40:44.867Z,1.80
2023-05-31T06:43:12.035Z,1.90
2023-05-31T06:45:42.961Z,1.50
2023-05-31T06:48:12.205Z,1.85
2023-05-31T06:50:38.806Z,1.77
2023-05-31T06:53:05.636Z,2.10
2023-05-31T06:55:32.538Z,1.80
2023-05-31T06:57:59.622Z,1.90
2023-05-31T07:00:26.271Z,1.70
2023-05-31T07:02:53.076Z,1.88
2023-05-31T07:05:22.053Z,1.70
2023-05-31T07:07:48.654Z,1.50
2023-05-31T07:10:15.336Z,1.75
2023-05-31T07:12:41.902Z,1.95
2023-05-31T07:15:12.077Z,1.75
2023-05-31T07:17:47.201Z,2.08
2023-05-31T07:20:14.120Z,1.70
2023-05-31T07:22:40.776Z,1.67
2023-05-31T07:25:08.029Z,1.92
2023-05-31T07:27:34.555Z,1.42
2023-05-31T07:30:01.403Z,1.90
2023-05-31T07:32:29.864Z,1.88
2023-05-31T07:35:02.429Z,1.50
2023-05-31T07:37:31.773Z,2.00
2023-05-31T07:39:58.934Z,1.90
2023-05-31T07:42:25.545Z,1.60
2023-05-31T07:44:52.116Z,1.73
2023-05-31T07:47:18.695Z,1.50
2023-05-31T07:49:45.216Z,1.67
2023-05-31T07:52:13.460Z,2.45
2023-05-31T07:54:40.000Z,1.88
2023-05-31T07:57:08.914Z,1.80
2023-05-31T07:59:35.987Z,1.80
2023-05-31T08:02:02.644Z,2.08
2023-05-31T08:04:29.716Z,1.90
2023-05-31T08:07:01.857Z,1.92
2023-05-31T08:09:28.620Z,1.80
2023-05-31T08:11:55.233Z,2.33
2023-05-31T08:14:22.157Z,2.17
2023-05-31T08:16:50.477Z,2.22
2023-05-31T08:19:17.516Z,2.17
2023-05-31T08:21:48.238Z,1.55
2023-05-31T08:24:14.829Z,1.58
2023-05-31T08:26:44.933Z,1.70
2023-05-31T08:29:20.184Z,1.70
2023-05-31T08:34:13.316Z,1.95
2023-05-31T08:36:41.644Z,1.80
2023-05-31T08:39:10.088Z,1.50
2023-05-31T08:41:55.517Z,1.50
2023-05-31T08:44:24.871Z,1.90
2023-05-31T08:46:51.574Z,1.77
2023-05-31T08:49:21.394Z,1.80
2023-05-31T08:51:49.586Z,2.00
2023-05-31T08:54:18.243Z,1.73
2023-05-31T08:56:48.313Z,1.80
2023-05-31T08:59:17.675Z,1.83
2023-05-31T09:01:45.186Z,1.92
2023-05-31T09:04:14.290Z,2.30
2023-05-31T09:06:44.543Z,2.22
2023-05-31T09:09:11.212Z,2.55
2023-05-31T09:11:41.824Z,2.10
2023-05-31T09:14:11.870Z,2.72
2023-05-31T09:16:39.255Z,2.20
2023-05-31T09:19:07.267Z,1.70
2023-05-31T09:21:44.151Z,1.70
2023-05-31T09:24:11.566Z,1.73
2023-05-31T09:27:06.842Z,1.90
2023-05-31T09:29:33.636Z,1.60
2023-05-31T09:32:11.112Z,1.70
2023-05-31T09:34:39.525Z,1.92
2023-05-31T09:37:06.884Z,1.88
2023-05-31T09:39:33.957Z,1.73
2023-05-31T09:42:02.495Z,2.03
2023-05-31T09:44:31.355Z,2.05
2023-05-31T09:47:10.417Z,2.30
2023-05-31T09:49:37.223Z,2.63
2023-05-31T09:52:03.921Z,1.92
2023-05-31T09:54:30.800Z,2.45
2023-05-31T09:56:57.310Z,1.90
2023-05-31T09:59:23.870Z,2.65
2023-05-31T10:01:53.059Z,3.30
2023-05-31T10:04:21.139Z,2.95
2023-05-31T10:06:48.877Z,2.45
2023-05-31T10:09:17.267Z,3.03
2023-05-31T10:11:51.432Z,3.33
2023-05-31T10:14:25.243Z,2.65
2023-05-31T10:16:59.879Z,2.97
2023-05-31T10:19:38.504Z,2.60
2023-05-31T10:22:08.480Z,2.50
2023-05-31T10:24:54.107Z,3.03
2023-05-31T10:27:30.245Z,2.70
2023-05-31T10:29:58.011Z,2.60
2023-05-31T10:32:28.225Z,2.83
2023-05-31T10:34:55.094Z,2.70
2023-05-31T10:37:23.152Z,2.80
2023-05-31T10:40:14.610Z,2.85
2023-05-31T10:42:58.135Z,3.10
2023-05-31T10:45:32.719Z,3.08
2023-05-31T10:48:18.951Z,2.77
2023-05-31T10:51:00.538Z,3.00
2023-05-31T10:53:33.828Z,2.70
2023-05-31T10:56:05.646Z,2.28
2023-05-31T10:58:39.930Z,3.00
2023-05-31T11:01:12.228Z,2.80
2023-05-31T11:04:20.215Z,2.80
2023-05-31T11:06:53.116Z,3.35
2023-05-31T11:09:19.804Z,3.15
2023-05-31T11:11:56.517Z,2.78
2023-05-31T11:14:27.183Z,2.90
2023-05-31T11:16:54.590Z,2.63
2023-05-31T11:19:25.461Z,2.75
2023-05-31T11:21:53.664Z,3.10
2023-05-31T11:24:31.534Z,3.22
2023-05-31T11:27:01.625Z,2.95
2023-05-31T11:29:47.630Z,2.80
2023-05-31T11:32:21.870Z,3.15
2023-05-31T11:35:05.602Z,2.60
2023-05-31T11:37:38.391Z,3.03
2023-05-31T11:40:09.447Z,3.20
2023-05-31T11:42:40.821Z,2.90
2023-05-31T11:45:09.698Z,2.67
2023-05-31T11:47:47.591Z,2.67
2023-05-31T11:50:19.468Z,2.53
2023-05-31T11:52:46.756Z,2.90
2023-05-31T11:55:20.734Z,2.60
2023-05-31T11:57:52.732Z,2.72
2023-05-31T12:00:22.822Z,2.90
2023-05-31T12:02:54.654Z,2.72
2023-05-31T12:05:25.505Z,2.40
2023-05-31T12:07:57.022Z,2.55
2023-05-31T12:10:32.792Z,2.75
2023-05-31T12:13:02.087Z,2.70
2023-05-31T12:15:40.012Z,2.92
2023-05-31T12:18:06.627Z,2.50
2023-05-31T12:20:34.898Z,2.47
2023-05-31T12:23:16.190Z,3.05
2023-05-31T12:25:50.144Z,3.00
2023-05-31T12:28:24.522Z,2.72
2023-05-31T12:30:53.450Z,2.70
2023-05-31T12:33:21.180Z,2.38
2023-05-31T12:35:48.866Z,2.60
2023-05-31T12:38:16.629Z,2.67
2023-05-31T12:40:44.671Z,2.60
2023-05-31T12:43:17.336Z,2.10
2023-05-31T12:45:44.049Z,3.13
2023-05-31T12:48:12.029Z,2.55
2023-05-31T12:50:46.467Z,2.30
2023-05-31T12:53:14.609Z,2.40
2023-05-31T12:55:42.310Z,2.70
2023-05-31T12:58:11.200Z,2.38
2023-05-31T13:00:37.806Z,2.10
2023-05-31T13:03:05.360Z,2.20
2023-05-31T13:05:32.546Z,2.13
2023-05-31T13:07:59.732Z,1.90
2023-05-31T13:10:26.372Z,2.55
2023-05-31T13:12:54.653Z,2.10
2023-05-31T13:15:21.969Z,2.33
2023-05-31T13:17:48.520Z,2.38
2023-05-31T13:20:17.435Z,2.08
2023-05-31T13:22:46.360Z,2.30
2023-05-31T13:25:12.907Z,1.90
2023-05-31T13:27:44.249Z,2.80
2023-05-31T13:30:11.354Z,2.90
2023-05-31T13:32:37.935Z,3.00
2023-05-31T13:35:09.726Z,3.28
2023-05-31T13:37:36.636Z,2.50
2023-05-31T13:40:03.910Z,2.22
2023-05-31T13:42:30.638Z,2.78
2023-05-31T13:45:02.475Z,2.58
2023-05-31T13:47:41.078Z,2.75
2023-05-31T13:50:08.658Z,2.30
2023-05-31T13:52:35.314Z,1.92
2023-05-31T13:55:03.647Z,2.45
2023-05-31T13:57:30.209Z,2.28
2023-05-31T13:59:58.672Z,2.38
2023-05-31T14:02:27.747Z,2.30
2023-05-31T14:04:54.308Z,2.60
2023-05-31T14:07:20.835Z,2.28
2023-05-31T14:09:49.251Z,2.30
2023-05-31T14:12:15.972Z,2.42
2023-05-31T14:14:42.619Z,2.30
2023-05-31T14:17:11.060Z,1.90
2023-05-31T14:19:37.669Z,2.30
2023-05-31T14:22:04.451Z,2.35
2023-05-31T14:24:31.187Z,2.40
2023-05-31T14:26:57.782Z,2.40
2023-05-31T14:29:28.106Z,2.80
2023-05-31T14:31:54.748Z,3.08
2023-05-31T14:34:21.362Z,2.50
2023-05-31T14:36:48.149Z,2.40
2023-05-31T14:39:17.386Z,2.38
2023-05-31T14:41:44.184Z,2.45
2023-05-31T14:44:10.795Z,2.47
2023-05-31T14:46:39.161Z,2.78
2023-05-31T14:49:05.809Z,2.78
2023-05-31T14:51:34.465Z,3.17
2023-05-31T14:54:06.128Z,2.53
2023-05-31T14:56:32.725Z,2.58
2023-05-31T14:58:59.263Z,2.50
2023-05-31T15:01:26.146Z,2.47
2023-05-31T15:03:52.830Z,2.20
2023-05-31T15:06:22.931Z,2.40
2023-05-31T15:08:49.535Z,2.80
2023-05-31T15:11:16.162Z,2.53
2023-05-31T15:13:43.237Z,2.45
2023-05-31T15:16:09.961Z,2.35
2023-05-31T15:18:40.832Z,2.45
2023-05-31T15:21:08.205Z,2.60
2023-05-31T15:23:34.999Z,2.50
2023-05-31T15:26:01.544Z,2.55
2023-05-31T15:28:28.217Z,2.90
2023-05-31T15:30:59.999Z,2.20
2023-05-31T15:33:26.697Z,2.40
2023-05-31T15:35:53.212Z,2.72
2023-05-31T15:38:24.136Z,2.20
2023-05-31T15:40:50.815Z,2.28
2023-05-31T15:43:18.291Z,2.30
2023-05-31T15:45:48.559Z,2.17
2023-05-31T15:48:15.176Z,2.28
2023-05-31T15:50:41.897Z,2.70
2023-05-31T15:53:13.304Z,2.35
2023-05-31T15:55:41.891Z,2.40
2023-05-31T15:58:08.709Z,2.17
2023-05-31T16:00:37.486Z,2.45
2023-05-31T16:03:06.338Z,2.40
2023-05-31T16:05:32.970Z,2.42
2023-05-31T16:08:05.420Z,2.53
2023-05-31T16:10:32.058Z,2.90
2023-05-31T16:12:59.818Z,2.70
2023-05-31T16:15:39.339Z,2.78
2023-05-31T16:18:08.111Z,2.72
2023-05-31T16:20:35.241Z,2.20
2023-05-31T16:23:01.913Z,2.30
2023-05-31T16:25:28.459Z,2.33
2023-05-31T16:27:54.981Z,2.28
2023-05-31T16:30:25.944Z,2.22
2023-05-31T16:32:53.094Z,2.30
2023-05-31T16:35:19.718Z,1.90
2023-05-31T16:37:48.426Z,2.53
2023-05-31T16:40:14.959Z,2.28
2023-05-31T16:42:41.842Z,1.85
2023-05-31T16:45:10.524Z,2.08
2023-05-31T16:47:37.125Z,2.30
2023-05-31T16:50:04.223Z,2.20
2023-05-31T16:52:33.481Z,1.90
2023-05-31T16:57:53.938Z,2.30
2023-05-31T17:00:24.867Z,2.50
2023-05-31T17:02:51.573Z,2.33
2023-05-31T17:05:18.387Z,2.35
2023-05-31T17:07:45.011Z,2.05
2023-05-31T17:10:11.711Z,2.00
2023-05-31T17:12:45.534Z,2.10
2023-05-31T17:15:12.053Z,2.33
2023-05-31T17:17:40.872Z,2.42
2023-05-31T17:20:08.300Z,2.20
2023-05-31T17:22:35.077Z,2.10
2023-05-31T17:25:01.923Z,2.00
2023-05-31T17:27:30.169Z,1.80
2023-05-31T17:29:56.808Z,2.10
2023-05-31T17:32:23.305Z,2.00
2023-05-31T17:34:59.968Z,2.28
2023-05-31T17:37:32.342Z,1.92
2023-05-31T17:40:02.801Z,2.17
2023-05-31T17:42:29.400Z,1.95
2023-05-31T17:44:55.983Z,2.30
2023-05-31T17:47:22.606Z,2.13
2023-05-31T17:49:49.256Z,1.85
2023-05-31T17:52:15.802Z,1.75
2023-05-31T17:54:42.402Z,2.50
2023-05-31T17:57:09.422Z,1.90
2023-05-31T17:59:36.024Z,1.75
2023-05-31T18:02:02.615Z,2.13
2023-05-31T18:04:35.555Z,1.70
2023-05-31T18:07:03.899Z,2.00
2023-05-31T18:09:30.403Z,2.35
2023-05-31T18:11:58.886Z,1.90
2023-05-31T18:14:25.578Z,1.60
2023-05-31T18:16:53.851Z,1.38
2023-05-31T18:19:22.537Z,1.67
2023-05-31T18:21:49.126Z,1.30
2023-05-31T18:24:16.633Z,1.35
2023-05-31T18:26:45.472Z,1.25
2023-05-31T18:29:11.988Z,1.60
2023-05-31T18:31:38.792Z,1.33
2023-05-31T18:34:07.171Z,1.50
2023-05-31T18:36:33.902Z,1.58
2023-05-31T18:39:00.604Z,1.42
2023-05-31T18:41:29.514Z,1.42
2023-05-31T18:43:56.068Z,1.48
2023-05-31T18:46:22.660Z,1.48
2023-05-31T18:48:58.197Z,1.30
2023-05-31T18:51:27.120Z,1.48
2023-05-31T18:53:53.687Z,1.42
2023-05-31T18:56:20.591Z,1.20
2023-05-31T18:58:47.120Z,1.30
2023-05-31T19:01:14.641Z,1.15
2023-05-31T19:03:41.416Z,1.27
2023-05-31T19:06:08.322Z,1.65
2023-05-31T19:08:36.907Z,1.30
2023-05-31T19:11:04.243Z,1.70
2023-05-31T19:13:30.872Z,1.33
2023-05-31T19:15:57.493Z,1.60
2023-05-31T19:18:24.356Z,1.92
2023-05-31T19:20:51.230Z,2.05
2023-05-31T19:23:17.969Z,1.80
2023-05-31T19:25:46.588Z,1.95
2023-05-31T19:28:13.346Z,1.85
2023-05-31T19:30:41.945Z,1.73
2023-05-31T19:33:17.031Z,1.85
2023-05-31T19:35:45.916Z,2.00
2023-05-31T19:38:12.719Z,2.25
2023-05-31T19:40:39.442Z,1.80
2023-05-31T19:43:07.419Z,2.30
2023-05-31T19:45:34.573Z,1.60
2023-05-31T19:48:15.962Z,1.95
2023-05-31T19:50:44.923Z,1.70
2023-05-31T19:53:15.570Z,1.70
2023-05-31T19:55:43.884Z,1.77
2023-05-31T19:58:11.699Z,2.03
2023-05-31T20:00:38.348Z,1.88
2023-05-31T20:03:05.673Z,1.65
2023-05-31T20:05:38.838Z,1.75
2023-05-31T20:08:06.351Z,1.77
2023-05-31T20:10:32.838Z,1.42
2023-05-31T20:12:59.645Z,2.00
2023-05-31T20:15:26.799Z,1.70
2023-05-31T20:17:53.361Z,1.80
2023-05-31T20:20:21.663Z,1.73
2023-05-31T20:22:48.334Z,1.88
2023-05-31T20:25:17.068Z,1.83
2023-05-31T20:27:43.693Z,1.58
2023-05-31T20:30:10.748Z,1.55
2023-05-31T20:32:37.373Z,1.77
2023-05-31T20:35:06.505Z,2.00
2023-05-31T20:37:33.208Z,1.80
2023-05-31T20:39:59.898Z,2.10
2023-05-31T20:42:27.211Z,2.10
2023-05-31T20:44:53.899Z,2.35
2023-05-31T20:47:20.509Z,2.00
2023-05-31T20:49:47.204Z,2.20
2023-05-31T20:52:13.824Z,2.10
2023-05-31T20:54:40.344Z,2.42
2023-05-31T20:57:09.756Z,2.20
2023-05-31T20:59:36.741Z,1.70
2023-05-31T21:02:04.168Z,1.90
2023-05-31T21:04:42.319Z,1.77
2023-05-31T21:07:10.281Z,1.80
2023-05-31T21:09:36.821Z,1.75
2023-05-31T21:12:03.617Z,1.75
2023-05-31T21:14:32.344Z,1.67
2023-05-31T21:16:59.622Z,1.80
2023-05-31T21:19:26.154Z,1.75
2023-05-31T21:21:52.810Z,1.67
2023-05-31T21:24:19.402Z,1.77
2023-05-31T21:26:46.130Z,1.90
2023-05-31T21:29:12.716Z,2.17
2023-05-31T21:31:39.730Z,1.80
2023-05-31T21:34:06.749Z,1.65
2023-05-31T21:36:33.596Z,2.53
2023-05-31T21:39:00.205Z,1.83
2023-05-31T21:41:29.064Z,1.60
2023-05-31T21:43:57.845Z,1.70
2023-05-31T21:46:24.676Z,2.30
2023-05-31T21:48:51.731Z,2.17
2023-05-31T21:51:18.588Z,1.88
2023-05-31T21:53:45.413Z,1.52
2023-05-31T21:56:11.922Z,1.45
2023-05-31T21:58:40.380Z,2.10
2023-05-31T22:01:07.009Z,1.77
2023-05-31T22:03:33.589Z,1.33
2023-05-31T22:06:09.220Z,1.60
2023-05-31T22:08:37.644Z,1.40
2023-05-31T22:11:04.450Z,1.50
2023-05-31T22:13:33.530Z,1.30
2023-05-31T22:16:00.310Z,1.52
2023-05-31T22:18:32.097Z,1.50
2023-05-31T22:20:59.946Z,1.50
2023-05-31T22:23:27.243Z,1.40
2023-05-31T22:25:55.521Z,1.50
2023-05-31T22:28:30.075Z,1.50
2023-05-31T22:30:57.787Z,1.40
2023-05-31T22:33:24.435Z,1.50
2023-05-31T22:35:53.304Z,1.40
2023-05-31T22:38:19.866Z,1.40
2023-05-31T22:40:46.662Z,1.67
2023-05-31T22:43:15.460Z,1.23
2023-05-31T22:45:42.087Z,1.40
2023-05-31T22:48:11.219Z,1.30
2023-05-31T22:50:39.426Z,1.80
2023-05-31T22:53:08.268Z,1.45
2023-05-31T22:55:35.343Z,1.23
2023-05-31T22:58:04.518Z,1.17
2023-05-31T23:00:31.531Z,1.60
2023-05-31T23:02:58.238Z,1.63
2023-05-31T23:05:28.675Z,1.80
2023-05-31T23:08:02.698Z,1.60
2023-05-31T23:10:35.704Z,1.70
2023-05-31T23:13:04.846Z,1.52
2023-05-31T23:15:38.562Z,1.58
2023-05-31T23:18:10.709Z,1.77
2023-05-31T23:20:39.500Z,1.70
2023-05-31T23:23:07.642Z,1.63
2023-05-31T23:25:34.527Z,1.33
2023-05-31T23:28:03.312Z,1.58
2023-05-31T23:30:29.989Z,1.70
2023-05-31T23:32:56.740Z,1.63
2023-05-31T23:35:23.332Z,1.63
2023-05-31T23:37:51.778Z,1.73
2023-05-31T23:40:18.757Z,1.75
2023-05-31T23:42:45.671Z,1.30
2023-05-31T23:45:12.817Z,1.40
2023-05-31T23:47:43.069Z,1.50
2023-05-31T23:50:10.146Z,1.35
2023-05-31T23:52:37.367Z,1.73
2023-05-31T23:55:05.113Z,1.70
2023-05-31T23:57:31.757Z,1.90
2023-05-31T23:59:58.714Z,1.67
